sensor_id;sensor_type;location;lat;lon;timestamp;P1;durP1;ratioP1;P2;durP2;ratioP2
48006;SDS011;33771;48.180;11.400;2022-11-20T00:01:06;5.30;;;2.90;;
48006;SDS011;33771;48.180;11.400;2022-11-20T00:03:37;4.30;;;2.70;;
48006;SDS011;33771;48.180;11.400;2022-11-20T00:06:03;5.33;;;2.90;;
48006;SDS011;33771;48.180;11.400;2022-11-20T00:08:30;5.57;;;2.90;;
48006;SDS011;33771;48.180;11.400;2022-11-20T00:10:56;3.67;;;2.73;;
48006;SDS011;33771;48.180;11.400;2022-11-20T00:13:21;3.70;;;2.80;;
48006;SDS011;33771;48.180;11.400;2022-11-20T00:15:47;4.07;;;3.27;;
48006;SDS011;33771;48.180;11.400;2022-11-20T00:18:13;4.50;;;3.00;;
48006;SDS011;33771;48.180;11.400;2022-11-20T00:20:38;5.83;;;3.00;;
48006;SDS011;33771;48.180;11.400;2022-11-20T00:23:04;5.03;;;3.20;;
48006;SDS011;33771;48.180;11.400;2022-11-20T00:25:33;4.47;;;2.73;;
48006;SDS011;33771;48.180;11.400;2022-11-20T00:27:59;5.27;;;3.20;;
48006;SDS011;33771;48.180;11.400;2022-11-20T00:30:25;4.00;;;3.10;;
48006;SDS011;33771;48.180;11.400;2022-11-20T00:32:50;5.90;;;3.50;;
48006;SDS011;33771;48.180;11.400;2022-11-20T00:35:16;6.37;;;3.53;;
48006;SDS011;33771;48.180;11.400;2022-11-20T00:37:41;7.63;;;3.77;;
48006;SDS011;33771;48.180;11.400;2022-11-20T00:40:07;6.03;;;4.17;;
48006;SDS011;33771;48.180;11.400;2022-11-20T00:42:33;6.13;;;3.17;;
48006;SDS011;33771;48.180;11.400;2022-11-20T00:44:58;6.33;;;3.20;;
48006;SDS011;33771;48.180;11.400;2022-11-20T00:47:24;5.97;;;3.80;;
48006;SDS011;33771;48.180;11.400;2022-11-20T00:49:50;4.93;;;3.80;;
48006;SDS011;33771;48.180;11.400;2022-11-20T00:52:15;6.43;;;4.03;;
48006;SDS011;33771;48.180;11.400;2022-11-20T00:54:41;4.80;;;3.63;;
48006;SDS011;33771;48.180;11.400;2022-11-20T00:57:06;5.17;;;3.33;;
48006;SDS011;33771;48.180;11.400;2022-11-20T00:59:32;5.57;;;3.60;;
48006;SDS011;33771;48.180;11.400;2022-11-20T01:01:57;6.33;;;3.67;;
48006;SDS011;33771;48.180;11.400;2022-11-20T01:04:23;5.27;;;3.53;;
48006;SDS011;33771;48.180;11.400;2022-11-20T01:06:48;4.63;;;3.73;;
48006;SDS011;33771;48.180;11.400;2022-11-20T01:09:14;5.47;;;3.60;;
48006;SDS011;33771;48.180;11.400;2022-11-20T01:11:41;4.90;;;3.87;;
48006;SDS011;33771;48.180;11.400;2022-11-20T01:14:15;4.13;;;3.27;;
48006;SDS011;33771;48.180;11.400;2022-11-20T01:16:44;4.38;;;3.42;;
48006;SDS011;33771;48.180;11.400;2022-11-20T01:19:15;5.13;;;3.50;;
48006;SDS011;33771;48.180;11.400;2022-11-20T01:21:51;4.87;;;3.63;;
48006;SDS011;33771;48.180;11.400;2022-11-20T01:24:19;4.60;;;3.40;;
48006;SDS011;33771;48.180;11.400;2022-11-20T01:26:46;4.60;;;3.40;;
48006;SDS011;33771;48.180;11.400;2022-11-20T01:29:15;5.37;;;3.70;;
48006;SDS011;33771;48.180;11.400;2022-11-20T01:31:42;7.13;;;3.57;;
48006;SDS011;33771;48.180;11.400;2022-11-20T01:34:18;6.63;;;4.00;;
48006;SDS011;33771;48.180;11.400;2022-11-20T01:36:46;7.20;;;3.63;;
48006;SDS011;33771;48.180;11.400;2022-11-20T01:39:15;5.00;;;4.00;;
48006;SDS011;33771;48.180;11.400;2022-11-20T01:41:42;4.70;;;3.33;;
48006;SDS011;33771;48.180;11.400;2022-11-20T01:47:16;5.30;;;3.37;;
48006;SDS011;33771;48.180;11.400;2022-11-20T01:49:48;4.27;;;3.67;;
48006;SDS011;33771;48.180;11.400;2022-11-20T01:52:20;5.27;;;4.00;;
48006;SDS011;33771;48.180;11.400;2022-11-20T01:54:51;7.03;;;4.03;;
48006;SDS011;33771;48.180;11.400;2022-11-20T01:57:23;4.90;;;3.47;;
48006;SDS011;33771;48.180;11.400;2022-11-20T01:59:53;6.87;;;3.77;;
48006;SDS011;33771;48.180;11.400;2022-11-20T02:02:24;6.57;;;3.60;;
48006;SDS011;33771;48.180;11.400;2022-11-20T02:04:51;6.57;;;3.67;;
48006;SDS011;33771;48.180;11.400;2022-11-20T02:07:19;6.63;;;4.00;;
48006;SDS011;33771;48.180;11.400;2022-11-20T02:09:45;5.50;;;3.87;;
48006;SDS011;33771;48.180;11.400;2022-11-20T02:12:12;5.73;;;3.90;;
48006;SDS011;33771;48.180;11.400;2022-11-20T02:14:57;4.15;;;3.70;;
48006;SDS011;33771;48.180;11.400;2022-11-20T02:17:23;6.27;;;4.13;;
48006;SDS011;33771;48.180;11.400;2022-11-20T02:19:50;6.43;;;3.90;;
48006;SDS011;33771;48.180;11.400;2022-11-20T02:22:19;7.87;;;4.03;;
48006;SDS011;33771;48.180;11.400;2022-11-20T02:24:53;6.37;;;3.83;;
48006;SDS011;33771;48.180;11.400;2022-11-20T02:27:19;8.63;;;3.90;;
48006;SDS011;33771;48.180;11.400;2022-11-20T02:34:52;5.67;;;4.23;;
48006;SDS011;33771;48.180;11.400;2022-11-20T02:37:18;10.50;;;4.53;;
48006;SDS011;33771;48.180;11.400;2022-11-20T02:39:45;6.00;;;4.00;;
48006;SDS011;33771;48.180;11.400;2022-11-20T02:42:12;7.73;;;4.13;;
48006;SDS011;33771;48.180;11.400;2022-11-20T02:44:38;5.67;;;4.13;;
48006;SDS011;33771;48.180;11.400;2022-11-20T02:47:03;4.40;;;3.57;;
48006;SDS011;33771;48.180;11.400;2022-11-20T02:49:29;5.50;;;4.00;;
48006;SDS011;33771;48.180;11.400;2022-11-20T02:51:54;5.10;;;3.83;;
48006;SDS011;33771;48.180;11.400;2022-11-20T02:54:20;6.17;;;3.90;;
48006;SDS011;33771;48.180;11.400;2022-11-20T02:56:46;3.97;;;3.37;;
48006;SDS011;33771;48.180;11.400;2022-11-20T02:59:11;5.53;;;4.00;;
48006;SDS011;33771;48.180;11.400;2022-11-20T03:01:37;6.03;;;3.83;;
48006;SDS011;33771;48.180;11.400;2022-11-20T03:04:02;4.77;;;3.40;;
48006;SDS011;33771;48.180;11.400;2022-11-20T03:06:28;5.50;;;3.90;;
48006;SDS011;33771;48.180;11.400;2022-11-20T03:08:54;4.50;;;3.23;;
48006;SDS011;33771;48.180;11.400;2022-11-20T03:11:19;4.93;;;3.73;;
48006;SDS011;33771;48.180;11.400;2022-11-20T03:13:45;4.83;;;3.60;;
48006;SDS011;33771;48.180;11.400;2022-11-20T03:16:13;5.00;;;3.40;;
48006;SDS011;33771;48.180;11.400;2022-11-20T03:18:41;5.90;;;3.23;;
48006;SDS011;33771;48.180;11.400;2022-11-20T03:21:08;4.37;;;3.30;;
48006;SDS011;33771;48.180;11.400;2022-11-20T03:23:35;3.70;;;3.30;;
48006;SDS011;33771;48.180;11.400;2022-11-20T03:26:15;7.27;;;3.60;;
48006;SDS011;33771;48.180;11.400;2022-11-20T03:28:49;5.43;;;3.30;;
48006;SDS011;33771;48.180;11.400;2022-11-20T03:31:20;5.13;;;3.25;;
48006;SDS011;33771;48.180;11.400;2022-11-20T03:33:48;5.90;;;3.27;;
48006;SDS011;33771;48.180;11.400;2022-11-20T03:36:14;6.07;;;3.60;;
48006;SDS011;33771;48.180;11.400;2022-11-20T03:38:41;4.27;;;3.23;;
48006;SDS011;33771;48.180;11.400;2022-11-20T03:41:08;3.97;;;3.37;;
48006;SDS011;33771;48.180;11.400;2022-11-20T03:43:36;4.90;;;3.13;;
48006;SDS011;33771;48.180;11.400;2022-11-20T03:46:02;6.10;;;3.63;;
48006;SDS011;33771;48.180;11.400;2022-11-20T03:48:28;6.83;;;3.37;;
48006;SDS011;33771;48.180;11.400;2022-11-20T03:51:07;5.27;;;3.73;;
48006;SDS011;33771;48.180;11.400;2022-11-20T03:53:37;4.67;;;3.70;;
48006;SDS011;33771;48.180;11.400;2022-11-20T03:56:03;7.13;;;3.93;;
48006;SDS011;33771;48.180;11.400;2022-11-20T03:58:30;4.53;;;3.43;;
48006;SDS011;33771;48.180;11.400;2022-11-20T04:00:56;5.00;;;3.23;;
48006;SDS011;33771;48.180;11.400;2022-11-20T04:03:21;4.90;;;3.60;;
48006;SDS011;33771;48.180;11.400;2022-11-20T04:05:47;6.60;;;3.43;;
48006;SDS011;33771;48.180;11.400;2022-11-20T04:08:12;6.87;;;3.60;;
48006;SDS011;33771;48.180;11.400;2022-11-20T04:10:38;6.60;;;2.90;;
48006;SDS011;33771;48.180;11.400;2022-11-20T04:13:03;4.10;;;3.30;;
48006;SDS011;33771;48.180;11.400;2022-11-20T04:15:29;4.53;;;3.30;;
48006;SDS011;33771;48.180;11.400;2022-11-20T04:17:54;6.13;;;3.23;;
48006;SDS011;33771;48.180;11.400;2022-11-20T04:20:20;4.97;;;3.50;;
48006;SDS011;33771;48.180;11.400;2022-11-20T04:22:46;5.07;;;3.27;;
48006;SDS011;33771;48.180;11.400;2022-11-20T04:25:11;5.77;;;3.60;;
48006;SDS011;33771;48.180;11.400;2022-11-20T04:27:37;4.30;;;3.33;;
48006;SDS011;33771;48.180;11.400;2022-11-20T04:30:03;4.03;;;3.27;;
48006;SDS011;33771;48.180;11.400;2022-11-20T04:32:28;3.80;;;3.30;;
48006;SDS011;33771;48.180;11.400;2022-11-20T04:34:54;5.13;;;3.23;;
48006;SDS011;33771;48.180;11.400;2022-11-20T04:37:20;5.60;;;3.80;;
48006;SDS011;33771;48.180;11.400;2022-11-20T04:39:45;4.27;;;3.57;;
48006;SDS011;33771;48.180;11.400;2022-11-20T04:42:11;6.27;;;4.23;;
48006;SDS011;33771;48.180;11.400;2022-11-20T04:44:55;4.60;;;3.60;;
48006;SDS011;33771;48.180;11.400;2022-11-20T04:47:21;4.93;;;3.50;;
48006;SDS011;33771;48.180;11.400;2022-11-20T04:49:47;4.77;;;3.80;;
48006;SDS011;33771;48.180;11.400;2022-11-20T04:52:12;6.00;;;3.63;;
48006;SDS011;33771;48.180;11.400;2022-11-20T04:54:38;6.03;;;3.67;;
48006;SDS011;33771;48.180;11.400;2022-11-20T04:57:04;5.37;;;3.63;;
48006;SDS011;33771;48.180;11.400;2022-11-20T04:59:30;5.27;;;3.80;;
48006;SDS011;33771;48.180;11.400;2022-11-20T05:01:55;5.23;;;3.90;;
48006;SDS011;33771;48.180;11.400;2022-11-20T05:04:21;6.07;;;3.50;;
48006;SDS011;33771;48.180;11.400;2022-11-20T05:06:46;5.73;;;3.50;;
48006;SDS011;33771;48.180;11.400;2022-11-20T05:09:12;5.50;;;3.47;;
48006;SDS011;33771;48.180;11.400;2022-11-20T05:11:38;6.47;;;3.27;;
48006;SDS011;33771;48.180;11.400;2022-11-20T05:14:03;5.03;;;3.00;;
48006;SDS011;33771;48.180;11.400;2022-11-20T05:16:29;4.93;;;3.27;;
48006;SDS011;33771;48.180;11.400;2022-11-20T05:18:55;5.13;;;3.40;;
48006;SDS011;33771;48.180;11.400;2022-11-20T05:21:20;4.83;;;3.20;;
48006;SDS011;33771;48.180;11.400;2022-11-20T05:23:46;4.50;;;3.30;;
48006;SDS011;33771;48.180;11.400;2022-11-20T05:26:19;4.53;;;3.07;;
48006;SDS011;33771;48.180;11.400;2022-11-20T05:28:46;5.87;;;3.20;;
48006;SDS011;33771;48.180;11.400;2022-11-20T05:31:14;5.80;;;3.53;;
48006;SDS011;33771;48.180;11.400;2022-11-20T05:33:45;5.60;;;3.70;;
48006;SDS011;33771;48.180;11.400;2022-11-20T05:36:11;4.67;;;3.33;;
48006;SDS011;33771;48.180;11.400;2022-11-20T05:38:38;4.97;;;3.60;;
48006;SDS011;33771;48.180;11.400;2022-11-20T05:43:41;5.27;;;3.43;;
48006;SDS011;33771;48.180;11.400;2022-11-20T05:46:09;4.23;;;3.23;;
48006;SDS011;33771;48.180;11.400;2022-11-20T05:48:36;5.03;;;4.00;;
48006;SDS011;33771;48.180;11.400;2022-11-20T05:51:03;4.47;;;3.73;;
48006;SDS011;33771;48.180;11.400;2022-11-20T05:53:32;5.57;;;3.50;;
48006;SDS011;33771;48.180;11.400;2022-11-20T05:58:24;5.37;;;3.87;;
48006;SDS011;33771;48.180;11.400;2022-11-20T06:00:50;4.87;;;3.60;;
48006;SDS011;33771;48.180;11.400;2022-11-20T06:03:16;5.03;;;3.53;;
48006;SDS011;33771;48.180;11.400;2022-11-20T06:05:41;4.40;;;3.30;;
48006;SDS011;33771;48.180;11.400;2022-11-20T06:08:07;5.20;;;3.67;;
48006;SDS011;33771;48.180;11.400;2022-11-20T06:10:32;5.73;;;3.53;;
48006;SDS011;33771;48.180;11.400;2022-11-20T06:12:58;5.30;;;3.60;;
48006;SDS011;33771;48.180;11.400;2022-11-20T06:15:23;4.97;;;3.57;;
48006;SDS011;33771;48.180;11.400;2022-11-20T06:17:53;5.83;;;3.77;;
48006;SDS011;33771;48.180;11.400;2022-11-20T06:20:19;5.97;;;3.80;;
48006;SDS011;33771;48.180;11.400;2022-11-20T06:22:45;4.53;;;3.70;;
48006;SDS011;33771;48.180;11.400;2022-11-20T06:25:10;4.80;;;3.53;;
48006;SDS011;33771;48.180;11.400;2022-11-20T06:27:36;5.87;;;3.40;;
48006;SDS011;33771;48.180;11.400;2022-11-20T06:30:02;6.10;;;3.53;;
48006;SDS011;33771;48.180;11.400;2022-11-20T06:32:28;4.40;;;3.70;;
48006;SDS011;33771;48.180;11.400;2022-11-20T06:34:54;4.50;;;3.10;;
48006;SDS011;33771;48.180;11.400;2022-11-20T06:37:20;4.03;;;3.20;;
48006;SDS011;33771;48.180;11.400;2022-11-20T06:39:45;5.93;;;3.40;;
48006;SDS011;33771;48.180;11.400;2022-11-20T06:42:11;5.10;;;3.23;;
48006;SDS011;33771;48.180;11.400;2022-11-20T06:44:36;4.73;;;3.07;;
48006;SDS011;33771;48.180;11.400;2022-11-20T06:47:02;4.33;;;3.17;;
48006;SDS011;33771;48.180;11.400;2022-11-20T06:49:27;5.23;;;3.50;;
48006;SDS011;33771;48.180;11.400;2022-11-20T06:51:53;3.73;;;3.00;;
48006;SDS011;33771;48.180;11.400;2022-11-20T06:54:18;3.30;;;2.87;;
48006;SDS011;33771;48.180;11.400;2022-11-20T06:56:47;4.60;;;3.00;;
48006;SDS011;33771;48.180;11.400;2022-11-20T06:59:13;5.20;;;2.63;;
48006;SDS011;33771;48.180;11.400;2022-11-20T07:01:39;3.47;;;2.93;;
48006;SDS011;33771;48.180;11.400;2022-11-20T07:04:04;3.97;;;2.50;;
48006;SDS011;33771;48.180;11.400;2022-11-20T07:06:30;4.40;;;2.67;;
48006;SDS011;33771;48.180;11.400;2022-11-20T07:08:55;4.10;;;2.97;;
48006;SDS011;33771;48.180;11.400;2022-11-20T07:11:21;6.50;;;2.90;;
48006;SDS011;33771;48.180;11.400;2022-11-20T07:13:47;6.17;;;3.90;;
48006;SDS011;33771;48.180;11.400;2022-11-20T07:16:13;4.63;;;2.60;;
48006;SDS011;33771;48.180;11.400;2022-11-20T07:18:38;4.03;;;2.83;;
48006;SDS011;33771;48.180;11.400;2022-11-20T07:21:04;5.27;;;3.17;;
48006;SDS011;33771;48.180;11.400;2022-11-20T07:23:32;4.40;;;3.60;;
48006;SDS011;33771;48.180;11.400;2022-11-20T07:25:58;6.30;;;3.03;;
48006;SDS011;33771;48.180;11.400;2022-11-20T07:28:27;3.50;;;2.80;;
48006;SDS011;33771;48.180;11.400;2022-11-20T07:30:53;4.27;;;2.93;;
48006;SDS011;33771;48.180;11.400;2022-11-20T07:33:19;5.13;;;3.33;;
48006;SDS011;33771;48.180;11.400;2022-11-20T07:35:45;7.33;;;3.53;;
48006;SDS011;33771;48.180;11.400;2022-11-20T07:38:10;5.07;;;3.70;;
48006;SDS011;33771;48.180;11.400;2022-11-20T07:40:36;5.60;;;4.23;;
48006;SDS011;33771;48.180;11.400;2022-11-20T07:43:02;4.83;;;3.77;;
48006;SDS011;33771;48.180;11.400;2022-11-20T07:45:27;6.13;;;3.90;;
48006;SDS011;33771;48.180;11.400;2022-11-20T07:47:53;5.70;;;4.00;;
48006;SDS011;33771;48.180;11.400;2022-11-20T07:50:19;6.73;;;3.90;;
48006;SDS011;33771;48.180;11.400;2022-11-20T07:52:45;4.90;;;3.67;;
48006;SDS011;33771;48.180;11.400;2022-11-20T07:55:11;4.50;;;3.87;;
48006;SDS011;33771;48.180;11.400;2022-11-20T07:57:37;7.63;;;3.97;;
48006;SDS011;33771;48.180;11.400;2022-11-20T08:00:03;8.23;;;3.40;;
48006;SDS011;33771;48.180;11.400;2022-11-20T08:02:30;5.43;;;3.40;;
48006;SDS011;33771;48.180;11.400;2022-11-20T08:04:56;5.40;;;3.23;;
48006;SDS011;33771;48.180;11.400;2022-11-20T08:07:21;4.70;;;3.37;;
48006;SDS011;33771;48.180;11.400;2022-11-20T08:09:48;6.87;;;3.20;;
48006;SDS011;33771;48.180;11.400;2022-11-20T08:12:16;7.03;;;3.23;;
48006;SDS011;33771;48.180;11.400;2022-11-20T08:15:02;4.80;;;2.83;;
48006;SDS011;33771;48.180;11.400;2022-11-20T08:17:29;3.97;;;2.90;;
48006;SDS011;33771;48.180;11.400;2022-11-20T08:19:54;4.90;;;3.03;;
48006;SDS011;33771;48.180;11.400;2022-11-20T08:22:20;3.97;;;3.07;;
48006;SDS011;33771;48.180;11.400;2022-11-20T08:24:45;5.47;;;3.10;;
48006;SDS011;33771;48.180;11.400;2022-11-20T08:27:11;7.30;;;3.20;;
48006;SDS011;33771;48.180;11.400;2022-11-20T08:29:37;3.47;;;2.83;;
48006;SDS011;33771;48.180;11.400;2022-11-20T08:32:02;5.97;;;3.90;;
48006;SDS011;33771;48.180;11.400;2022-11-20T08:34:31;4.40;;;2.80;;
48006;SDS011;33771;48.180;11.400;2022-11-20T08:36:56;4.23;;;2.67;;
48006;SDS011;33771;48.180;11.400;2022-11-20T08:39:22;4.20;;;2.97;;
48006;SDS011;33771;48.180;11.400;2022-11-20T08:41:47;4.70;;;3.30;;
48006;SDS011;33771;48.180;11.400;2022-11-20T08:44:13;5.07;;;2.97;;
48006;SDS011;33771;48.180;11.400;2022-11-20T08:46:42;5.03;;;2.80;;
48006;SDS011;33771;48.180;11.400;2022-11-20T08:49:09;3.77;;;2.73;;
48006;SDS011;33771;48.180;11.400;2022-11-20T08:51:37;3.57;;;2.60;;
48006;SDS011;33771;48.180;11.400;2022-11-20T08:54:03;4.10;;;2.80;;
48006;SDS011;33771;48.180;11.400;2022-11-20T08:56:30;3.63;;;2.47;;
48006;SDS011;33771;48.180;11.400;2022-11-20T08:58:55;4.40;;;2.40;;
48006;SDS011;33771;48.180;11.400;2022-11-20T09:01:21;4.40;;;2.37;;
48006;SDS011;33771;48.180;11.400;2022-11-20T09:03:48;5.13;;;3.13;;
48006;SDS011;33771;48.180;11.400;2022-11-20T09:06:14;5.37;;;2.77;;
48006;SDS011;33771;48.180;11.400;2022-11-20T09:08:40;4.50;;;2.40;;
48006;SDS011;33771;48.180;11.400;2022-11-20T09:11:06;3.17;;;2.60;;
48006;SDS011;33771;48.180;11.400;2022-11-20T09:13:33;3.17;;;2.60;;
48006;SDS011;33771;48.180;11.400;2022-11-20T09:16:01;5.30;;;2.50;;
48006;SDS011;33771;48.180;11.400;2022-11-20T09:18:34;5.53;;;2.77;;
48006;SDS011;33771;48.180;11.400;2022-11-20T09:21:04;5.70;;;2.57;;
48006;SDS011;33771;48.180;11.400;2022-11-20T09:23:33;3.17;;;2.23;;
48006;SDS011;33771;48.180;11.400;2022-11-20T09:26:03;4.33;;;2.70;;
48006;SDS011;33771;48.180;11.400;2022-11-20T09:28:30;3.93;;;2.60;;
48006;SDS011;33771;48.180;11.400;2022-11-20T09:30:56;5.80;;;2.23;;
48006;SDS011;33771;48.180;11.400;2022-11-20T09:33:22;3.23;;;2.43;;
48006;SDS011;33771;48.180;11.400;2022-11-20T09:35:47;3.17;;;2.30;;
48006;SDS011;33771;48.180;11.400;2022-11-20T09:38:13;3.97;;;2.40;;
48006;SDS011;33771;48.180;11.400;2022-11-20T09:40:47;3.80;;;2.37;;
48006;SDS011;33771;48.180;11.400;2022-11-20T09:43:47;3.70;;;2.47;;
48006;SDS011;33771;48.180;11.400;2022-11-20T09:52:05;2.83;;;2.10;;
48006;SDS011;33771;48.180;11.400;2022-11-20T09:54:56;3.63;;;2.33;;
48006;SDS011;33771;48.180;11.400;2022-11-20T09:57:25;3.10;;;2.23;;
48006;SDS011;33771;48.180;11.400;2022-11-20T09:59:59;2.80;;;1.80;;
48006;SDS011;33771;48.180;11.400;2022-11-20T10:11:14;4.03;;;2.17;;
48006;SDS011;33771;48.180;11.400;2022-11-20T10:16:52;4.47;;;2.30;;
48006;SDS011;33771;48.180;11.400;2022-11-20T10:19:45;2.90;;;1.70;;
48006;SDS011;33771;48.180;11.400;2022-11-20T10:24:56;2.63;;;1.93;;
48006;SDS011;33771;48.180;11.400;2022-11-20T10:30:25;2.33;;;1.70;;
48006;SDS011;33771;48.180;11.400;2022-11-20T10:32:53;2.80;;;1.60;;
48006;SDS011;33771;48.180;11.400;2022-11-20T10:35:25;3.17;;;1.67;;
48006;SDS011;33771;48.180;11.400;2022-11-20T10:37:59;6.40;;;1.70;;
48006;SDS011;33771;48.180;11.400;2022-11-20T10:40:34;3.33;;;1.43;;
48006;SDS011;33771;48.180;11.400;2022-11-20T10:43:13;4.03;;;1.60;;
48006;SDS011;33771;48.180;11.400;2022-11-20T10:46:00;2.20;;;1.70;;
48006;SDS011;33771;48.180;11.400;2022-11-20T10:48:30;2.07;;;1.53;;
48006;SDS011;33771;48.180;11.400;2022-11-20T10:54:18;2.95;;;1.70;;
48006;SDS011;33771;48.180;11.400;2022-11-20T10:57:00;2.80;;;1.43;;
48006;SDS011;33771;48.180;11.400;2022-11-20T10:59:45;4.33;;;1.33;;
48006;SDS011;33771;48.180;11.400;2022-11-20T11:02:24;4.80;;;1.57;;
48006;SDS011;33771;48.180;11.400;2022-11-20T11:05:04;2.00;;;1.40;;
48006;SDS011;33771;48.180;11.400;2022-11-20T11:07:50;2.57;;;1.67;;
48006;SDS011;33771;48.180;11.400;2022-11-20T11:12:59;2.57;;;1.57;;
48006;SDS011;33771;48.180;11.400;2022-11-20T11:15:28;4.50;;;1.50;;
48006;SDS011;33771;48.180;11.400;2022-11-20T11:18:01;4.10;;;1.60;;
48006;SDS011;33771;48.180;11.400;2022-11-20T11:20:27;2.00;;;1.40;;
48006;SDS011;33771;48.180;11.400;2022-11-20T11:22:55;3.40;;;1.67;;
48006;SDS011;33771;48.180;11.400;2022-11-20T11:25:27;2.20;;;1.40;;
48006;SDS011;33771;48.180;11.400;2022-11-20T11:27:54;3.30;;;1.50;;
48006;SDS011;33771;48.180;11.400;2022-11-20T11:30:22;3.20;;;1.57;;
48006;SDS011;33771;48.180;11.400;2022-11-20T11:32:48;4.90;;;2.00;;
48006;SDS011;33771;48.180;11.400;2022-11-20T11:35:19;2.57;;;1.50;;
48006;SDS011;33771;48.180;11.400;2022-11-20T11:37:46;4.00;;;1.80;;
48006;SDS011;33771;48.180;11.400;2022-11-20T11:40:13;2.30;;;1.67;;
48006;SDS011;33771;48.180;11.400;2022-11-20T11:42:46;3.83;;;1.57;;
48006;SDS011;33771;48.180;11.400;2022-11-20T11:45:18;3.00;;;1.70;;
48006;SDS011;33771;48.180;11.400;2022-11-20T11:47:47;1.90;;;1.60;;
48006;SDS011;33771;48.180;11.400;2022-11-20T11:50:18;2.60;;;1.70;;
48006;SDS011;33771;48.180;11.400;2022-11-20T11:56:12;2.77;;;1.60;;
48006;SDS011;33771;48.180;11.400;2022-11-20T11:58:33;1.50;;;1.20;;
48006;SDS011;33771;48.180;11.400;2022-11-20T12:01:17;2.70;;;1.73;;
48006;SDS011;33771;48.180;11.400;2022-11-20T12:06:42;2.10;;;1.60;;
48006;SDS011;33771;48.180;11.400;2022-11-20T12:09:12;2.63;;;1.53;;
48006;SDS011;33771;48.180;11.400;2022-11-20T12:11:43;3.30;;;1.50;;
48006;SDS011;33771;48.180;11.400;2022-11-20T12:14:22;2.57;;;1.70;;
48006;SDS011;33771;48.180;11.400;2022-11-20T12:16:57;2.77;;;1.80;;
48006;SDS011;33771;48.180;11.400;2022-11-20T12:19:23;3.23;;;1.70;;
48006;SDS011;33771;48.180;11.400;2022-11-20T12:24:46;2.43;;;1.50;;
48006;SDS011;33771;48.180;11.400;2022-11-20T12:30:15;2.20;;;1.57;;
48006;SDS011;33771;48.180;11.400;2022-11-20T12:32:52;2.73;;;1.70;;
48006;SDS011;33771;48.180;11.400;2022-11-20T12:35:50;4.90;;;1.50;;
48006;SDS011;33771;48.180;11.400;2022-11-20T12:50:26;2.10;;;1.50;;
48006;SDS011;33771;48.180;11.400;2022-11-20T12:58:31;3.67;;;1.60;;
48006;SDS011;33771;48.180;11.400;2022-11-20T13:06:51;3.10;;;1.90;;
48006;SDS011;33771;48.180;11.400;2022-11-20T13:09:18;3.20;;;1.90;;
48006;SDS011;33771;48.180;11.400;2022-11-20T13:12:06;2.83;;;1.90;;
48006;SDS011;33771;48.180;11.400;2022-11-20T13:14:37;4.67;;;2.00;;
48006;SDS011;33771;48.180;11.400;2022-11-20T13:19:55;3.40;;;2.20;;
48006;SDS011;33771;48.180;11.400;2022-11-20T13:22:27;2.40;;;1.90;;
48006;SDS011;33771;48.180;11.400;2022-11-20T13:24:54;3.13;;;2.20;;
48006;SDS011;33771;48.180;11.400;2022-11-20T13:27:23;3.00;;;1.90;;
48006;SDS011;33771;48.180;11.400;2022-11-20T13:29:59;4.27;;;2.17;;
48006;SDS011;33771;48.180;11.400;2022-11-20T13:32:27;5.77;;;2.30;;
48006;SDS011;33771;48.180;11.400;2022-11-20T13:35:00;4.20;;;2.40;;
48006;SDS011;33771;48.180;11.400;2022-11-20T13:42:35;4.00;;;2.30;;
48006;SDS011;33771;48.180;11.400;2022-11-20T13:45:08;3.57;;;2.30;;
48006;SDS011;33771;48.180;11.400;2022-11-20T13:47:36;5.17;;;2.30;;
48006;SDS011;33771;48.180;11.400;2022-11-20T13:50:03;4.03;;;2.10;;
48006;SDS011;33771;48.180;11.400;2022-11-20T14:00:31;2.87;;;2.27;;
48006;SDS011;33771;48.180;11.400;2022-11-20T14:05:32;4.13;;;2.40;;
48006;SDS011;33771;48.180;11.400;2022-11-20T14:08:02;3.43;;;2.20;;
48006;SDS011;33771;48.180;11.400;2022-11-20T14:10:31;3.03;;;2.03;;
48006;SDS011;33771;48.180;11.400;2022-11-20T14:12:57;3.13;;;2.20;;
48006;SDS011;33771;48.180;11.400;2022-11-20T14:15:24;3.17;;;2.00;;
48006;SDS011;33771;48.180;11.400;2022-11-20T14:17:57;3.23;;;2.13;;
48006;SDS011;33771;48.180;11.400;2022-11-20T14:20:25;4.60;;;2.83;;
48006;SDS011;33771;48.180;11.400;2022-11-20T14:22:53;2.93;;;1.90;;
48006;SDS011;33771;48.180;11.400;2022-11-20T14:25:23;3.67;;;2.07;;
48006;SDS011;33771;48.180;11.400;2022-11-20T14:27:59;3.17;;;1.70;;
48006;SDS011;33771;48.180;11.400;2022-11-20T14:30:38;2.67;;;1.73;;
48006;SDS011;33771;48.180;11.400;2022-11-20T14:33:09;2.13;;;1.67;;
48006;SDS011;33771;48.180;11.400;2022-11-20T14:35:40;3.33;;;2.00;;
48006;SDS011;33771;48.180;11.400;2022-11-20T14:38:11;2.70;;;1.80;;
48006;SDS011;33771;48.180;11.400;2022-11-20T14:40:40;2.30;;;1.60;;
48006;SDS011;33771;48.180;11.400;2022-11-20T14:43:26;2.43;;;1.47;;
48006;SDS011;33771;48.180;11.400;2022-11-20T14:46:03;2.67;;;1.63;;
48006;SDS011;33771;48.180;11.400;2022-11-20T14:48:36;2.67;;;1.40;;
48006;SDS011;33771;48.180;11.400;2022-11-20T14:51:08;3.20;;;1.43;;
48006;SDS011;33771;48.180;11.400;2022-11-20T14:53:48;2.70;;;1.43;;
48006;SDS011;33771;48.180;11.400;2022-11-20T14:56:14;2.33;;;1.37;;
48006;SDS011;33771;48.180;11.400;2022-11-20T14:58:55;2.27;;;1.60;;
48006;SDS011;33771;48.180;11.400;2022-11-20T15:01:25;1.87;;;1.37;;
48006;SDS011;33771;48.180;11.400;2022-11-20T15:04:13;3.13;;;1.30;;
48006;SDS011;33771;48.180;11.400;2022-11-20T15:06:48;2.30;;;1.20;;
48006;SDS011;33771;48.180;11.400;2022-11-20T15:09:18;2.40;;;1.40;;
48006;SDS011;33771;48.180;11.400;2022-11-20T15:11:54;2.43;;;1.50;;
48006;SDS011;33771;48.180;11.400;2022-11-20T15:14:25;2.97;;;1.60;;
48006;SDS011;33771;48.180;11.400;2022-11-20T15:16:52;3.00;;;1.50;;
48006;SDS011;33771;48.180;11.400;2022-11-20T15:19:22;3.33;;;1.50;;
48006;SDS011;33771;48.180;11.400;2022-11-20T15:21:49;2.40;;;1.50;;
48006;SDS011;33771;48.180;11.400;2022-11-20T15:24:18;2.33;;;1.67;;
48006;SDS011;33771;48.180;11.400;2022-11-20T15:26:44;2.33;;;1.50;;
48006;SDS011;33771;48.180;11.400;2022-11-20T15:29:11;3.30;;;1.53;;
48006;SDS011;33771;48.180;11.400;2022-11-20T15:31:39;3.07;;;1.60;;
48006;SDS011;33771;48.180;11.400;2022-11-20T15:34:10;1.77;;;1.40;;
48006;SDS011;33771;48.180;11.400;2022-11-20T15:36:37;4.67;;;2.03;;
48006;SDS011;33771;48.180;11.400;2022-11-20T15:39:03;2.97;;;1.50;;
48006;SDS011;33771;48.180;11.400;2022-11-20T15:41:35;5.53;;;1.50;;
48006;SDS011;33771;48.180;11.400;2022-11-20T15:44:01;3.97;;;1.80;;
48006;SDS011;33771;48.180;11.400;2022-11-20T15:46:32;4.00;;;1.40;;
48006;SDS011;33771;48.180;11.400;2022-11-20T15:49:03;4.80;;;1.90;;
48006;SDS011;33771;48.180;11.400;2022-11-20T15:51:36;4.37;;;1.80;;
48006;SDS011;33771;48.180;11.400;2022-11-20T15:54:20;4.60;;;2.60;;
48006;SDS011;33771;48.180;11.400;2022-11-20T15:56:49;3.63;;;2.17;;
48006;SDS011;33771;48.180;11.400;2022-11-20T15:59:20;3.43;;;2.33;;
48006;SDS011;33771;48.180;11.400;2022-11-20T16:01:48;2.87;;;2.03;;
48006;SDS011;33771;48.180;11.400;2022-11-20T16:04:22;3.60;;;2.07;;
48006;SDS011;33771;48.180;11.400;2022-11-20T16:06:47;4.23;;;2.17;;
48006;SDS011;33771;48.180;11.400;2022-11-20T16:09:13;3.33;;;2.27;;
48006;SDS011;33771;48.180;11.400;2022-11-20T16:11:38;3.77;;;1.93;;
48006;SDS011;33771;48.180;11.400;2022-11-20T16:14:04;2.97;;;1.80;;
48006;SDS011;33771;48.180;11.400;2022-11-20T16:16:49;3.30;;;1.90;;
48006;SDS011;33771;48.180;11.400;2022-11-20T16:19:15;3.20;;;1.77;;